sensor_id;sensor_type;location;lat;lon;timestamp;pressure;altitude;pressure_sealevel;temperature;humidity
37634;BME280;32048;49.902;22.508;2023-04-28T00:00:28;99215.56;;;0.43;100.00
37634;BME280;32048;49.902;22.508;2023-04-28T00:03:15;99218.22;;;0.36;100.00
37634;BME280;32048;49.902;22.508;2023-04-28T00:05:42;99213.91;;;0.31;100.00
37634;BME280;32048;49.902;22.508;2023-04-28T00:08:10;99220.84;;;0.32;100.00
37634;BME280;32048;49.902;22.508;2023-04-28T00:10:38;99221.72;;;0.28;100.00
37634;BME280;32048;49.902;22.508;2023-04-28T00:13:05;99216.53;;;0.23;100.00
37634;BME280;32048;49.902;22.508;2023-04-28T00:15:32;99217.38;;;0.22;100.00
37634;BME280;32048;49.902;22.508;2023-04-28T00:18:00;99216.53;;;0.22;100.00
37634;BME280;32048;49.902;22.508;2023-04-28T00:20:27;99218.25;;;0.21;100.00
37634;BME280;32048;49.902;22.508;2023-04-28T00:22:54;99212.22;;;0.19;100.00
37634;BME280;32048;49.902;22.508;2023-04-28T00:25:21;99212.19;;;0.17;100.00
37634;BME280;32048;49.902;22.508;2023-04-28T00:27:48;99212.22;;;0.16;100.00
37634;BME280;32048;49.902;22.508;2023-04-28T00:30:16;99214.81;;;0.16;100.00
37634;BME280;32048;49.902;22.508;2023-04-28T00:32:43;99220.03;;;0.16;100.00
37634;BME280;32048;49.902;22.508;2023-04-28T00:35:10;99215.69;;;0.09;100.00
37634;BME280;32048;49.902;22.508;2023-04-28T00:37:38;99218.28;;;0.04;100.00
37634;BME280;32048;49.902;22.508;2023-04-28T00:40:05;99220.03;;;0.04;100.00
37634;BME280;32048;49.902;22.508;2023-04-28T00:42:32;99218.31;;;0.03;100.00
37634;BME280;32048;49.902;22.508;2023-04-28T00:44:59;99229.56;;;-0.02;100.00
37634;BME280;32048;49.902;22.508;2023-04-28T00:47:33;99214.88;;;-0.04;100.00
37634;BME280;32048;49.902;22.508;2023-04-28T00:50:00;99220.03;;;-0.07;100.00
37634;BME280;32048;49.902;22.508;2023-04-28T00:52:28;99227.84;;;-0.06;100.00
37634;BME280;32048;49.902;22.508;2023-04-28T00:54:56;99231.31;;;-0.08;100.00
37634;BME280;32048;49.902;22.508;2023-04-28T00:57:23;99233.88;;;-0.11;100.00
37634;BME280;32048;49.902;22.508;2023-04-28T00:59:50;99229.56;;;-0.12;100.00
37634;BME280;32048;49.902;22.508;2023-04-28T01:02:18;99231.31;;;-0.10;100.00
37634;BME280;32048;49.902;22.508;2023-04-28T01:04:46;99234.75;;;-0.03;100.00
37634;BME280;32048;49.902;22.508;2023-04-28T01:07:14;99228.72;;;-0.02;100.00
37634;BME280;32048;49.902;22.508;2023-04-28T01:09:40;99223.50;;;0.01;100.00
37634;BME280;32048;49.902;22.508;2023-04-28T01:12:08;99230.44;;;-0.06;100.00
37634;BME280;32048;49.902;22.508;2023-04-28T01:14:35;99228.69;;;-0.05;100.00
37634;BME280;32048;49.902;22.508;2023-04-28T01:17:02;99230.44;;;-0.12;100.00
37634;BME280;32048;49.902;22.508;2023-04-28T01:19:29;99228.69;;;-0.11;100.00
37634;BME280;32048;49.902;22.508;2023-04-28T01:21:56;99224.38;;;-0.08;100.00
37634;BME280;32048;49.902;22.508;2023-04-28T01:24:23;99220.91;;;-0.11;100.00
37634;BME280;32048;49.902;22.508;2023-04-28T01:26:51;99222.66;;;-0.13;100.00
37634;BME280;32048;49.902;22.508;2023-04-28T01:29:17;99214.88;;;-0.19;100.00
37634;BME280;32048;49.902;22.508;2023-04-28T01:31:44;99220.09;;;-0.24;100.00
37634;BME280;32048;49.902;22.508;2023-04-28T01:34:12;99216.59;;;-0.23;100.00
37634;BME280;32048;49.902;22.508;2023-04-28T01:36:39;99222.66;;;-0.27;100.00
37634;BME280;32048;49.902;22.508;2023-04-28T01:39:06;99221.78;;;-0.29;100.00
37634;BME280;32048;49.902;22.508;2023-04-28T01:41:34;99215.75;;;-0.27;100.00
37634;BME280;32048;49.902;22.508;2023-04-28T01:44:01;99218.34;;;-0.25;100.00
37634;BME280;32048;49.902;22.508;2023-04-28T01:46:28;99210.56;;;-0.24;100.00
37634;BME280;32048;49.902;22.508;2023-04-28T01:48:55;99220.06;;;-0.26;100.00
37634;BME280;32048;49.902;22.508;2023-04-28T01:51:22;99218.34;;;-0.22;100.00
37634;BME280;32048;49.902;22.508;2023-04-28T01:53:49;99215.75;;;-0.17;100.00
37634;BME280;32048;49.902;22.508;2023-04-28T01:56:16;99214.88;;;-0.15;100.00
37634;BME280;32048;49.902;22.508;2023-04-28T01:58:43;99220.91;;;-0.11;100.00
37634;BME280;32048;49.902;22.508;2023-04-28T02:01:10;99215.72;;;-0.11;100.00
37634;BME280;32048;49.902;22.508;2023-04-28T02:03:37;99216.63;;;-0.15;100.00
37634;BME280;32048;49.902;22.508;2023-04-28T02:06:04;99214.00;;;-0.17;100.00
37634;BME280;32048;49.902;22.508;2023-04-28T02:08:31;99214.00;;;-0.17;100.00
37634;BME280;32048;49.902;22.508;2023-04-28T02:10:58;99225.25;;;-0.15;100.00
37634;BME280;32048;49.902;22.508;2023-04-28T02:13:27;99219.22;;;-0.20;100.00
37634;BME280;32048;49.902;22.508;2023-04-28T02:15:54;99226.13;;;-0.19;100.00
37634;BME280;32048;49.902;22.508;2023-04-28T02:18:21;99222.69;;;-0.18;100.00
37634;BME280;32048;49.902;22.508;2023-04-28T02:20:48;99223.53;;;-0.14;100.00
37634;BME280;32048;49.902;22.508;2023-04-28T02:23:15;99228.72;;;-0.10;100.00
37634;BME280;32048;49.902;22.508;2023-04-28T02:25:42;99235.63;;;-0.06;100.00
37634;BME280;32048;49.902;22.508;2023-04-28T02:28:09;99233.88;;;-0.05;100.00
37634;BME280;32048;49.902;22.508;2023-04-28T02:30:37;99243.41;;;-0.07;100.00
37634;BME280;32048;49.902;22.508;2023-04-28T02:33:03;99233.91;;;-0.10;100.00
37634;BME280;32048;49.902;22.508;2023-04-28T02:35:31;99227.84;;;-0.10;100.00
37634;BME280;32048;49.902;22.508;2023-04-28T02:37:57;99228.72;;;-0.08;100.00
37634;BME280;32048;49.902;22.508;2023-04-28T02:43:20;99230.44;;;-0.12;100.00
37634;BME280;32048;49.902;22.508;2023-04-28T02:45:47;99237.38;;;-0.11;100.00
37634;BME280;32048;49.902;22.508;2023-04-28T02:48:14;99239.09;;;-0.04;100.00
37634;BME280;32048;49.902;22.508;2023-04-28T02:50:41;99243.41;;;-0.03;100.00
37634;BME280;32048;49.902;22.508;2023-04-28T02:53:08;99244.25;;;-0.01;100.00
37634;BME280;32048;49.902;22.508;2023-04-28T02:55:35;99239.94;;;-0.05;100.00
37634;BME280;32048;49.902;22.508;2023-04-28T02:58:02;99244.28;;;-0.08;100.00
37634;BME280;32048;49.902;22.508;2023-04-28T03:00:30;99242.56;;;-0.11;100.00
37634;BME280;32048;49.902;22.508;2023-04-28T03:02:57;99239.09;;;-0.14;100.00
37634;BME280;32048;49.902;22.508;2023-04-28T03:05:24;99246.88;;;-0.11;100.00
37634;BME280;32048;49.902;22.508;2023-04-28T03:07:52;99245.16;;;-0.06;100.00
37634;BME280;32048;49.902;22.508;2023-04-28T03:10:19;99248.59;;;-0.03;100.00
37634;BME280;32048;49.902;22.508;2023-04-28T03:12:46;99255.53;;;-0.02;100.00
37634;BME280;32048;49.902;22.508;2023-04-28T03:15:13;99261.59;;;0.01;100.00
37634;BME280;32048;49.902;22.508;2023-04-28T03:17:40;99255.50;;;0.02;100.00
37634;BME280;32048;49.902;22.508;2023-04-28T03:20:09;99252.94;;;0.03;100.00
37634;BME280;32048;49.902;22.508;2023-04-28T03:22:36;99259.84;;;0.07;100.00
37634;BME280;32048;49.902;22.508;2023-04-28T03:25:04;99260.69;;;0.11;100.00
37634;BME280;32048;49.902;22.508;2023-04-28T03:27:31;99266.75;;;0.14;100.00
37634;BME280;32048;49.902;22.508;2023-04-28T03:29:58;99265.88;;;0.15;100.00
37634;BME280;32048;49.902;22.508;2023-04-28T03:32:25;99262.41;;;0.19;100.00
37634;BME280;32048;49.902;22.508;2023-04-28T03:34:52;99270.22;;;0.16;100.00
37634;BME280;32048;49.902;22.508;2023-04-28T03:37:19;99269.34;;;0.17;100.00
37634;BME280;32048;49.902;22.508;2023-04-28T03:39:46;99276.25;;;0.15;100.00
37634;BME280;32048;49.902;22.508;2023-04-28T03:42:13;99272.81;;;0.12;100.00
37634;BME280;32048;49.902;22.508;2023-04-28T03:44:41;99273.69;;;0.09;100.00
37634;BME280;32048;49.902;22.508;2023-04-28T03:47:07;99274.56;;;0.11;100.00
37634;BME280;32048;49.902;22.508;2023-04-28T03:49:35;99278.00;;;0.15;100.00
37634;BME280;32048;49.902;22.508;2023-04-28T03:52:02;99282.31;;;0.24;100.00
37634;BME280;32048;49.902;22.508;2023-04-28T03:54:30;99288.34;;;0.35;100.00
37634;BME280;32048;49.902;22.508;2023-04-28T03:56:57;99279.63;;;0.51;100.00
37634;BME280;32048;49.902;22.508;2023-04-28T03:59:25;99278.72;;;0.71;100.00
37634;BME280;32048;49.902;22.508;2023-04-28T04:01:52;99282.97;;;0.90;100.00
37634;BME280;32048;49.902;22.508;2023-04-28T04:04:19;99282.88;;;1.10;100.00
37634;BME280;32048;49.902;22.508;2023-04-28T04:06:47;99275.81;;;1.28;100.00
37634;BME280;32048;49.902;22.508;2023-04-28T04:09:14;99285.25;;;1.47;100.00
37634;BME280;32048;49.902;22.508;2023-04-28T04:11:41;99293.81;;;1.61;100.00
37634;BME280;32048;49.902;22.508;2023-04-28T04:14:08;99285.88;;;1.78;100.00
37634;BME280;32048;49.902;22.508;2023-04-28T04:16:36;99286.56;;;2.02;100.00
37634;BME280;32048;49.902;22.508;2023-04-28T04:19:03;99293.25;;;2.29;100.00
37634;BME280;32048;49.902;22.508;2023-04-28T04:21:30;99292.06;;;2.58;100.00
37634;BME280;32048;49.902;22.508;2023-04-28T04:23:57;99294.50;;;2.75;100.00
37634;BME280;32048;49.902;22.508;2023-04-28T04:26:24;99297.66;;;3.01;100.00
37634;BME280;32048;49.902;22.508;2023-04-28T04:28:52;99300.78;;;3.28;100.00
37634;BME280;32048;49.902;22.508;2023-04-28T04:31:19;99298.63;;;3.56;100.00
37634;BME280;32048;49.902;22.508;2023-04-28T04:33:46;99302.47;;;3.91;100.00
37634;BME280;32048;49.902;22.508;2023-04-28T04:36:13;99305.53;;;4.14;100.00
37634;BME280;32048;49.902;22.508;2023-04-28T04:38:40;99307.72;;;4.39;100.00
37634;BME280;32048;49.902;22.508;2023-04-28T04:41:07;99308.16;;;4.63;100.00
37634;BME280;32048;49.902;22.508;2023-04-28T04:43:34;99301.09;;;4.68;100.00
37634;BME280;32048;49.902;22.508;2023-04-28T04:46:01;99299.28;;;4.71;100.00
37634;BME280;32048;49.902;22.508;2023-04-28T04:48:30;99306.00;;;4.85;100.00
37634;BME280;32048;49.902;22.508;2023-04-28T04:50:56;99305.72;;;4.98;98.53
37634;BME280;32048;49.902;22.508;2023-04-28T04:53:24;99304.97;;;4.92;97.08
37634;BME280;32048;49.902;22.508;2023-04-28T04:55:50;99315.56;;;4.86;98.04
37634;BME280;32048;49.902;22.508;2023-04-28T04:58:18;99309.50;;;4.84;99.20
37634;BME280;32048;49.902;22.508;2023-04-28T05:00:45;99319.97;;;4.84;100.00
37634;BME280;32048;49.902;22.508;2023-04-28T05:03:12;99316.41;;;4.86;100.00
37634;BME280;32048;49.902;22.508;2023-04-28T05:05:39;99317.97;;;4.96;100.00
37634;BME280;32048;49.902;22.508;2023-04-28T05:08:06;99319.13;;;5.25;100.00
37634;BME280;32048;49.902;22.508;2023-04-28T05:10:33;99313.66;;;5.75;100.00
37634;BME280;32048;49.902;22.508;2023-04-28T05:13:00;99310.41;;;6.37;97.66
37634;BME280;32048;49.902;22.508;2023-04-28T05:15:27;99309.19;;;6.81;91.63
37634;BME280;32048;49.902;22.508;2023-04-28T05:17:55;99313.84;;;7.03;86.61
37634;BME280;32048;49.902;22.508;2023-04-28T05:20:22;99320.06;;;7.00;84.90
37634;BME280;32048;49.902;22.508;2023-04-28T05:22:50;99314.09;;;6.95;85.59
37634;BME280;32048;49.902;22.508;2023-04-28T05:25:17;99306.63;;;7.11;89.14
37634;BME280;32048;49.902;22.508;2023-04-28T05:27:44;99312.75;;;7.69;90.57
37634;BME280;32048;49.902;22.508;2023-04-28T05:30:11;99315.97;;;8.32;82.84
37634;BME280;32048;49.902;22.508;2023-04-28T05:32:38;99319.72;;;8.77;74.89
37634;BME280;32048;49.902;22.508;2023-04-28T05:35:05;99315.31;;;8.78;73.71
37634;BME280;32048;49.902;22.508;2023-04-28T05:37:33;99317.50;;;8.65;74.38
37634;BME280;32048;49.902;22.508;2023-04-28T05:40:00;99325.41;;;8.65;74.82
37634;BME280;32048;49.902;22.508;2023-04-28T05:42:27;99324.81;;;8.82;73.23
37634;BME280;32048;49.902;22.508;2023-04-28T05:44:54;99327.97;;;8.91;73.64
37634;BME280;32048;49.902;22.508;2023-04-28T05:47:21;99327.94;;;8.93;74.89
37634;BME280;32048;49.902;22.508;2023-04-28T05:49:48;99327.19;;;9.36;77.27
37634;BME280;32048;49.902;22.508;2023-04-28T05:52:15;99317.13;;;10.14;72.35
37634;BME280;32048;49.902;22.508;2023-04-28T05:54:42;99321.56;;;10.76;63.58
37634;BME280;32048;49.902;22.508;2023-04-28T05:57:09;99325.81;;;10.99;59.67
37634;BME280;32048;49.902;22.508;2023-04-28T05:59:36;99328.78;;;11.12;62.55
37634;BME280;32048;49.902;22.508;2023-04-28T06:02:04;99322.28;;;11.19;58.06
37634;BME280;32048;49.902;22.508;2023-04-28T06:04:31;99330.47;;;11.13;60.44
37634;BME280;32048;49.902;22.508;2023-04-28T06:06:59;99326.34;;;11.08;60.28
37634;BME280;32048;49.902;22.508;2023-04-28T06:09:26;99325.56;;;11.24;60.65
37634;BME280;32048;49.902;22.508;2023-04-28T06:11:53;99322.50;;;11.72;59.47
37634;BME280;32048;49.902;22.508;2023-04-28T06:14:21;99326.53;;;12.34;57.55
37634;BME280;32048;49.902;22.508;2023-04-28T06:16:49;99329.41;;;12.82;52.65
37634;BME280;32048;49.902;22.508;2023-04-28T06:19:16;99326.91;;;13.29;51.89
37634;BME280;32048;49.902;22.508;2023-04-28T06:21:45;99322.06;;;14.17;51.09
37634;BME280;32048;49.902;22.508;2023-04-28T06:24:12;99328.16;;;15.08;47.37
37634;BME280;32048;49.902;22.508;2023-04-28T06:26:39;99323.03;;;15.77;43.42
37634;BME280;32048;49.902;22.508;2023-04-28T06:29:06;99323.69;;;16.35;39.91
37634;BME280;32048;49.902;22.508;2023-04-28T06:31:33;99324.91;;;16.56;39.18
37634;BME280;32048;49.902;22.508;2023-04-28T06:34:00;99317.88;;;16.55;39.26
37634;BME280;32048;49.902;22.508;2023-04-28T06:36:27;99330.66;;;16.63;39.63
37634;BME280;32048;49.902;22.508;2023-04-28T06:38:54;99329.66;;;17.17;40.22
37634;BME280;32048;49.902;22.508;2023-04-28T06:41:21;99331.56;;;18.03;37.17
37634;BME280;32048;49.902;22.508;2023-04-28T06:43:49;99323.25;;;18.78;35.11
37634;BME280;32048;49.902;22.508;2023-04-28T06:46:16;99325.16;;;19.34;33.46
37634;BME280;32048;49.902;22.508;2023-04-28T06:48:43;99319.03;;;19.88;33.50
37634;BME280;32048;49.902;22.508;2023-04-28T06:51:10;99327.84;;;20.55;31.83
37634;BME280;32048;49.902;22.508;2023-04-28T06:53:37;99323.91;;;21.22;31.59
37634;BME280;32048;49.902;22.508;2023-04-28T06:56:05;99319.53;;;21.92;30.24
37634;BME280;32048;49.902;22.508;2023-04-28T06:58:34;99323.88;;;22.63;27.79
37634;BME280;32048;49.902;22.508;2023-04-28T07:01:03;99320.81;;;23.15;27.43
37634;BME280;32048;49.902;22.508;2023-04-28T07:03:31;99323.59;;;23.70;27.08
37634;BME280;32048;49.902;22.508;2023-04-28T07:05:58;99322.78;;;24.15;26.84
37634;BME280;32048;49.902;22.508;2023-04-28T07:08:25;99331.41;;;24.73;26.28
37634;BME280;32048;49.902;22.508;2023-04-28T07:10:53;99318.81;;;25.25;24.13
37634;BME280;32048;49.902;22.508;2023-04-28T07:13:20;99324.72;;;25.55;23.92
37634;BME280;32048;49.902;22.508;2023-04-28T07:15:48;99316.59;;;25.21;23.50
37634;BME280;32048;49.902;22.508;2023-04-28T07:18:15;99317.63;;;24.40;24.03
37634;BME280;32048;49.902;22.508;2023-04-28T07:20:42;99313.44;;;24.27;25.38
37634;BME280;32048;49.902;22.508;2023-04-28T07:23:09;99317.94;;;24.55;25.86
37634;BME280;32048;49.902;22.508;2023-04-28T07:25:37;99311.06;;;24.60;25.34
37634;BME280;32048;49.902;22.508;2023-04-28T07:28:06;99313.75;;;24.42;25.42
37634;BME280;32048;49.902;22.508;2023-04-28T07:30:34;99303.63;;;23.91;24.73
37634;BME280;32048;49.902;22.508;2023-04-28T07:33:01;99303.97;;;23.40;23.99
37634;BME280;32048;49.902;22.508;2023-04-28T07:35:28;99297.63;;;22.75;25.35
37634;BME280;32048;49.902;22.508;2023-04-28T07:37:56;99301.28;;;22.06;26.87
37634;BME280;32048;49.902;22.508;2023-04-28T07:40:23;99303.19;;;21.34;27.67
37634;BME280;32048;49.902;22.508;2023-04-28T07:42:50;99305.63;;;20.64;28.69
37634;BME280;32048;49.902;22.508;2023-04-28T07:45:18;99310.75;;;19.91;29.51
37634;BME280;32048;49.902;22.508;2023-04-28T07:47:45;99309.81;;;19.25;30.98
37634;BME280;32048;49.902;22.508;2023-04-28T07:50:12;99305.38;;;18.43;31.74
37634;BME280;32048;49.902;22.508;2023-04-28T07:52:39;99307.16;;;17.71;32.80
37634;BME280;32048;49.902;22.508;2023-04-28T07:55:07;99306.63;;;17.16;33.48
37634;BME280;32048;49.902;22.508;2023-04-28T07:57:34;99305.41;;;16.69;34.48
37634;BME280;32048;49.902;22.508;2023-04-28T08:00:02;99307.13;;;16.30;34.91
37634;BME280;32048;49.902;22.508;2023-04-28T08:02:29;99302.69;;;16.03;35.04
37634;BME280;32048;49.902;22.508;2023-04-28T08:04:57;99294.59;;;15.77;35.86
37634;BME280;32048;49.902;22.508;2023-04-28T08:07:24;99287.53;;;15.62;36.75
37634;BME280;32048;49.902;22.508;2023-04-28T08:09:52;99293.28;;;15.56;37.01
37634;BME280;32048;49.902;22.508;2023-04-28T08:12:19;99289.38;;;16.03;39.06
37634;BME280;32048;49.902;22.508;2023-04-28T08:14:47;99288.03;;;17.27;37.02
37634;BME280;32048;49.902;22.508;2023-04-28T08:17:14;99282.63;;;18.14;33.03
37634;BME280;32048;49.902;22.508;2023-04-28T08:19:43;99277.97;;;18.64;31.38
37634;BME280;32048;49.902;22.508;2023-04-28T08:22:12;99275.63;;;18.95;31.62
37634;BME280;32048;49.902;22.508;2023-04-28T08:24:39;99272.94;;;19.06;31.56
37634;BME280;32048;49.902;22.508;2023-04-28T08:27:06;99279.25;;;19.05;30.45
37634;BME280;32048;49.902;22.508;2023-04-28T08:29:34;99279.38;;;19.26;29.29
37634;BME280;32048;49.902;22.508;2023-04-28T08:32:01;99270.00;;;18.51;29.23
37634;BME280;32048;49.902;22.508;2023-04-28T08:34:28;99275.84;;;17.73;30.06
37634;BME280;32048;49.902;22.508;2023-04-28T08:36:55;99274.69;;;17.14;30.81
37634;BME280;32048;49.902;22.508;2023-04-28T08:39:23;99264.63;;;16.41;31.73
37634;BME280;32048;49.902;22.508;2023-04-28T08:41:52;99267.84;;;15.65;32.22
37634;BME280;32048;49.902;22.508;2023-04-28T08:44:19;99266.44;;;15.03;34.30
37634;BME280;32048;49.902;22.508;2023-04-28T08:46:48;99266.22;;;15.35;34.15
37634;BME280;32048;49.902;22.508;2023-04-28T08:49:17;99264.94;;;16.36;32.50
37634;BME280;32048;49.902;22.508;2023-04-28T08:51:54;99268.75;;;17.11;31.02
37634;BME280;32048;49.902;22.508;2023-04-28T08:54:26;99260.81;;;17.22;30.10
37634;BME280;32048;49.902;22.508;2023-04-28T08:56:57;99257.09;;;17.49;31.78
37634;BME280;32048;49.902;22.508;2023-04-28T08:59:24;99250.00;;;18.21;31.43
37634;BME280;32048;49.902;22.508;2023-04-28T09:01:52;99251.22;;;18.75;30.47
37634;BME280;32048;49.902;22.508;2023-04-28T09:04:19;99250.81;;;18.93;29.79
37634;BME280;32048;49.902;22.508;2023-04-28T09:06:47;99252.38;;;18.84;29.18
37634;BME280;32048;49.902;22.508;2023-04-28T09:11:52;99254.03;;;18.38;29.93
37634;BME280;32048;49.902;22.508;2023-04-28T09:14:19;99257.72;;;18.13;31.24
37634;BME280;32048;49.902;22.508;2023-04-28T09:16:46;99246.09;;;17.90;31.90
37634;BME280;32048;49.902;22.508;2023-04-28T09:19:15;99248.28;;;17.72;32.58
37634;BME280;32048;49.902;22.508;2023-04-28T09:21:55;99242.31;;;17.69;32.54
37634;BME280;32048;49.902;22.508;2023-04-28T09:24:36;99245.28;;;17.77;31.79
37634;BME280;32048;49.902;22.508;2023-04-28T09:27:10;99244.50;;;18.12;32.45
37634;BME280;32048;49.902;22.508;2023-04-28T09:29:38;99240.31;;;19.01;32.61
37634;BME280;32048;49.902;22.508;2023-04-28T09:32:16;99243.59;;;20.25;29.55
37634;BME280;32048;49.902;22.508;2023-04-28T09:34:47;99235.59;;;21.38;26.90
37634;BME280;32048;49.902;22.508;2023-04-28T09:39:50;99239.09;;;20.26;26.66
37634;BME280;32048;49.902;22.508;2023-04-28T09:42:39;99230.34;;;19.91;28.22
37634;BME280;32048;49.902;22.508;2023-04-28T09:45:09;99227.34;;;20.59;29.26
37634;BME280;32048;49.902;22.508;2023-04-28T09:47:39;99221.44;;;21.77;28.12
37634;BME280;32048;49.902;22.508;2023-04-28T09:50:08;99224.53;;;23.17;26.02
37634;BME280;32048;49.902;22.508;2023-04-28T09:52:42;99211.19;;;24.42;23.29
37634;BME280;32048;49.902;22.508;2023-04-28T09:55:15;99211.66;;;25.16;20.42
37634;BME280;32048;49.902;22.508;2023-04-28T09:57:43;99206.19;;;25.34;21.46
37634;BME280;32048;49.902;22.508;2023-04-28T10:00:15;99208.06;;;25.42;21.47
37634;BME280;32048;49.902;22.508;2023-04-28T10:02:42;99199.41;;;25.97;21.87
37634;BME280;32048;49.902;22.508;2023-04-28T10:05:10;99190.25;;;26.80;21.13
37634;BME280;32048;49.902;22.508;2023-04-28T10:07:39;99193.91;;;27.43;20.64
37634;BME280;32048;49.902;22.508;2023-04-28T10:10:07;99188.97;;;28.24;19.39
37634;BME280;32048;49.902;22.508;2023-04-28T10:12:34;99190.63;;;28.86;18.89
37634;BME280;32048;49.902;22.508;2023-04-28T10:15:06;99182.00;;;28.97;17.51
37634;BME280;32048;49.902;22.508;2023-04-28T10:17:34;99181.78;;;28.54;18.13
37634;BME280;32048;49.902;22.508;2023-04-28T10:20:03;99175.03;;;27.27;19.27
37634;BME280;32048;49.902;22.508;2023-04-28T10:27:39;99186.88;;;24.95;22.37
37634;BME280;32048;49.902;22.508;2023-04-28T10:30:21;99178.31;;;24.47;23.06
37634;BME280;32048;49.902;22.508;2023-04-28T10:35:42;99177.53;;;23.01;23.89
37634;BME280;32048;49.902;22.508;2023-04-28T10:38:13;99174.56;;;22.48;25.22
37634;BME280;32048;49.902;22.508;2023-04-28T10:58:39;99146.28;;;27.72;18.15
37634;BME280;32048;49.902;22.508;2023-04-28T11:06:28;99133.94;;;26.99;17.86
37634;BME280;32048;49.902;22.508;2023-04-28T11:08:59;99132.28;;;26.89;19.92
37634;BME280;32048;49.902;22.508;2023-04-28T11:11:31;99139.16;;;26.44;18.00
37634;BME280;32048;49.902;22.508;2023-04-28T11:17:00;99119.53;;;26.42;19.11
37634;BME280;32048;49.902;22.508;2023-04-28T11:19:29;99121.19;;;27.07;18.37
37634;BME280;32048;49.902;22.508;2023-04-28T11:21:58;99123.09;;;27.38;17.96
37634;BME280;32048;49.902;22.508;2023-04-28T11:24:27;99118.84;;;27.90;19.06
37634;BME280;32048;49.902;22.508;2023-04-28T11:26:58;99120.59;;;28.20;18.56
37634;BME280;32048;49.902;22.508;2023-04-28T11:29:36;99109.63;;;28.52;18.93
37634;BME280;32048;49.902;22.508;2023-04-28T11:32:09;99111.66;;;28.94;18.62
37634;BME280;32048;49.902;22.508;2023-04-28T11:34:37;99105.97;;;29.40;18.21
37634;BME280;32048;49.902;22.508;2023-04-28T11:37:04;99100.75;;;29.60;17.16
37634;BME280;32048;49.902;22.508;2023-04-28T11:39:34;99097.16;;;28.57;17.08
37634;BME280;32048;49.902;22.508;2023-04-28T11:42:09;99101.81;;;27.50;19.53
37634;BME280;32048;49.902;22.508;2023-04-28T11:44:36;99096.16;;;27.36;19.95
37634;BME280;32048;49.902;22.508;2023-04-28T11:47:05;99099.41;;;27.55;18.81
37634;BME280;32048;49.902;22.508;2023-04-28T11:49:45;99094.94;;;27.62;18.24
37634;BME280;32048;49.902;22.508;2023-04-28T11:52:12;99095.06;;;28.30;18.13
37634;BME280;32048;49.902;22.508;2023-04-28T11:54:39;99094.38;;;28.66;16.86
37634;BME280;32048;49.902;22.508;2023-04-28T11:57:17;99076.53;;;28.63;16.49
37634;BME280;32048;49.902;22.508;2023-04-28T11:59:44;99082.16;;;27.25;17.49
37634;BME280;32048;49.902;22.508;2023-04-28T12:02:12;99077.44;;;26.23;18.85
37634;BME280;32048;49.902;22.508;2023-04-28T12:04:41;99066.75;;;26.30;18.67
37634;BME280;32048;49.902;22.508;2023-04-28T12:07:16;99070.16;;;26.24;18.69
37634;BME280;32048;49.902;22.508;2023-04-28T12:12:30;99061.25;;;26.71;20.15
37634;BME280;32048;49.902;22.508;2023-04-28T12:15:03;99060.63;;;26.44;18.78
37634;BME280;32048;49.902;22.508;2023-04-28T12:17:35;99052.84;;;26.41;19.70
37634;BME280;32048;49.902;22.508;2023-04-28T12:20:05;99051.22;;;26.80;19.47
37634;BME280;32048;49.902;22.508;2023-04-28T12:22:47;99045.94;;;26.86;19.73
37634;BME280;32048;49.902;22.508;2023-04-28T12:25:16;99041.75;;;27.07;19.84
37634;BME280;32048;49.902;22.508;2023-04-28T12:30:27;99045.16;;;25.48;18.89
37634;BME280;32048;49.902;22.508;2023-04-28T12:32:55;99046.72;;;23.35;20.74
37634;BME280;32048;49.902;22.508;2023-04-28T12:35:24;99036.09;;;22.32;23.22
37634;BME280;32048;49.902;22.508;2023-04-28T12:37:51;99031.94;;;20.74;23.55
37634;BME280;32048;49.902;22.508;2023-04-28T12:40:19;99034.97;;;19.56;25.20
37634;BME280;32048;49.902;22.508;2023-04-28T12:42:46;99025.16;;;18.69;27.56
37634;BME280;32048;49.902;22.508;2023-04-28T12:45:13;99027.13;;;18.56;28.04
37634;BME280;32048;49.902;22.508;2023-04-28T12:47:42;99022.53;;;18.36;27.22
37634;BME280;32048;49.902;22.508;2023-04-28T12:50:09;99012.69;;;18.36;28.96
37634;BME280;32048;49.902;22.508;2023-04-28T12:52:36;99015.38;;;18.47;28.74
37634;BME280;32048;49.902;22.508;2023-04-28T12:55:04;99007.19;;;18.60;29.49
37634;BME280;32048;49.902;22.508;2023-04-28T12:57:31;99012.13;;;18.76;28.31
37634;BME280;32048;49.902;22.508;2023-04-28T12:59:58;99010.34;;;18.43;28.15
37634;BME280;32048;49.902;22.508;2023-04-28T13:02:25;99005.66;;;18.01;27.43
37634;BME280;32048;49.902;22.508;2023-04-28T13:04:52;98995.38;;;17.73;29.72
37634;BME280;32048;49.902;22.508;2023-04-28T13:07:20;98998.50;;;17.55;30.32
37634;BME280;32048;49.902;22.508;2023-04-28T13:09:47;98994.97;;;17.43;31.31
37634;BME280;32048;49.902;22.508;2023-04-28T13:12:14;98984.53;;;17.40;31.75
37634;BME280;32048;49.902;22.508;2023-04-28T13:14:41;98981.00;;;17.40;31.52
37634;BME280;32048;49.902;22.508;2023-04-28T13:17:08;98979.59;;;17.58;32.60
37634;BME280;32048;49.902;22.508;2023-04-28T13:19:36;98983.59;;;17.75;31.64
37634;BME280;32048;49.902;22.508;2023-04-28T13:22:04;98979.78;;;17.91;31.03
37634;BME280;32048;49.902;22.508;2023-04-28T13:24:32;98978.81;;;18.14;30.68
37634;BME280;32048;49.902;22.508;2023-04-28T13:26:59;98975.38;;;18.35;30.38
37634;BME280;32048;49.902;22.508;2023-04-28T13:29:26;98978.50;;;18.51;30.71
37634;BME280;32048;49.902;22.508;2023-04-28T13:31:53;98971.81;;;18.68;28.96
37634;BME280;32048;49.902;22.508;2023-04-28T13:34:20;98976.41;;;18.77;30.00
37634;BME280;32048;49.902;22.508;2023-04-28T13:36:47;98970.44;;;18.85;29.83
37634;BME280;32048;49.902;22.508;2023-04-28T13:39:16;98970.66;;;18.93;30.29